Time;durP1;ratioP1;P1;durP2;ratioP2;P2;SDS_P1;SDS_P2;PMS_P1;PMS_P2;Temp;Humidity;BMP_temperature;BMP_pressure;BME280_temperature;BME280_humidity;BME280_pressure;Samples;Min_cycle;Max_cycle;Signal;HPM_P1;HPM_P2
2022/11/12 00:00:38;;;;;;;;;;;;;;;4.91;100.00;100868.58;1705828;84;20482;-83
2022/11/12 00:03:25;;;;;;;;;;;;;;;4.90;100.00;100857.72;1706081;84;20177;-84
2022/11/12 00:06:10;;;;;;;;;;;;;;;4.93;100.00;100865.58;1704318;83;20229;-83
2022/11/12 00:08:56;;;;;;;;;;;;;;;4.92;100.00;100863.81;1663800;86;20221;-84
2022/11/12 00:11:41;;;;;;;;;;;;;;;4.90;100.00;100857.28;1663322;85;21177;-85
2022/11/12 00:14:28;;;;;;;;;;;;;;;4.92;100.00;100870.34;1663667;85;20213;-81
2022/11/12 00:17:12;;;;;;;;;;;;;;;4.93;100.00;100869.48;1684017;83;20208;-80
2022/11/12 00:19:57;;;;;;;;;;;;;;;4.91;100.00;100877.30;1706025;84;20213;-82
2022/11/12 00:22:42;;;;;;;;;;;;;;;4.88;100.00;100879.87;1706074;84;20236;-81
2022/11/12 00:25:29;;;;;;;;;;;;;;;4.88;100.00;100872.48;1705756;83;21100;-84
2022/11/12 00:28:15;;;;;;;;;;;;;;;4.87;100.00;100868.11;1673502;83;20212;-83
2022/11/12 00:31:08;;;;;;;;;;;;;;;4.84;100.00;100868.94;1658590;86;20513;-82
2022/11/12 00:33:53;;;;;;;;;;;;;;;4.84;100.00;100870.24;1656288;86;20174;-84
2022/11/12 00:36:39;;;;;;;;;;;;;;;4.86;100.00;100869.86;1663026;83;20206;-83
2022/11/12 00:39:25;;;;;;;;;;;;;;;4.87;100.00;100872.02;1678296;84;20703;-83
2022/11/12 00:42:10;;;;;;;;;;;;;;;4.87;100.00;100870.72;1677709;84;20231;-80
2022/11/12 00:44:55;;;;;;;;;;;;;;;4.87;100.00;100875.94;1677752;85;20228;-83
2022/11/12 00:47:39;;;;;;;;;;;;;;;4.89;100.00;100871.60;1681152;83;20636;-79
2022/11/12 00:50:24;;;;;;;;;;;;;;;4.89;100.00;100872.47;1657845;86;20217;-80
2022/11/12 00:53:09;;;;;;;;;;;;;;;4.88;100.00;100875.09;1658241;86;21194;-83
2022/11/12 00:55:59;;;;;;;;;;;;;;;4.88;100.00;100872.48;1662451;83;20966;-82
2022/11/12 00:58:44;;;;;;;;;;;;;;;4.88;100.00;100871.18;1691356;83;20202;-82
2022/11/12 01:01:29;;;;;;;;;;;;;;;4.89;100.00;100869.00;1685503;84;20502;-81
2022/11/12 01:04:13;;;;;;;;;;;;;;;4.90;100.00;100870.76;1685484;85;20180;-81
2022/11/12 01:06:58;;;;;;;;;;;;;;;4.89;100.00;100863.78;1685194;84;21131;-81
2022/11/12 01:09:44;;;;;;;;;;;;;;;4.90;100.00;100866.41;1695382;83;20142;-80
2022/11/12 01:12:30;;;;;;;;;;;;;;;4.92;100.00;100859.91;1701806;84;20154;-79
2022/11/12 01:15:15;;;;;;;;;;;;;;;4.92;100.00;100865.12;1701715;83;20659;-78
2022/11/12 01:18:02;;;;;;;;;;;;;;;4.91;100.00;100865.97;1698503;84;20201;-79
2022/11/12 01:20:47;;;;;;;;;;;;;;;4.90;100.00;100860.33;1698142;84;21061;-81
2022/11/12 01:23:34;;;;;;;;;;;;;;;4.91;100.00;100862.95;1697694;84;20224;-82
2022/11/12 01:26:21;;;;;;;;;;;;;;;4.91;100.00;100858.14;1693696;83;20224;-82
2022/11/12 01:29:05;;;;;;;;;;;;;;;4.90;100.00;100860.33;1685444;85;20199;-81
2022/11/12 01:31:50;;;;;;;;;;;;;;;4.90;100.00;100858.58;1692098;84;20899;-82
2022/11/12 01:34:37;;;;;;;;;;;;;;;4.89;100.00;100858.56;1693794;84;21167;-82
2022/11/12 01:37:22;;;;;;;;;;;;;;;4.88;100.00;100859.44;1692858;83;20250;-82
2022/11/12 01:40:08;;;;;;;;;;;;;;;4.86;100.00;100859.83;1693910;84;20155;-83
2022/11/12 01:42:53;;;;;;;;;;;;;;;4.86;100.00;100857.22;1693782;84;20227;-82
2022/11/12 01:45:39;;;;;;;;;;;;;;;4.83;100.00;100847.21;1693898;84;20217;-82
2022/11/12 01:48:26;;;;;;;;;;;;;;;4.82;100.00;100853.31;1662403;86;22145;-83
2022/11/12 01:51:11;;;;;;;;;;;;;;;4.80;100.00;100857.61;1669641;83;20293;-82
2022/11/12 01:53:58;;;;;;;;;;;;;;;4.79;100.00;100851.07;1694033;84;20190;-83
2022/11/12 01:56:43;;;;;;;;;;;;;;;4.81;100.00;100856.77;1693543;83;21071;-83
2022/11/12 01:59:31;;;;;;;;;;;;;;;4.80;100.00;100860.21;1694121;84;20223;-84
2022/11/12 02:02:15;;;;;;;;;;;;;;;4.80;100.00;100864.13;1694012;84;21167;-82
2022/11/12 02:05:01;;;;;;;;;;;;;;;4.77;100.00;100859.31;1693771;84;20159;-82
2022/11/12 02:07:46;;;;;;;;;;;;;;;4.72;100.00;100860.55;1706092;83;20173;-82
2022/11/12 02:10:33;;;;;;;;;;;;;;;4.70;100.00;100855.77;1713173;83;20483;-84
2022/11/12 02:16:30;;;;;;;;;;;;;;;4.68;100.00;100843.59;1708978;83;21078;-82
2022/11/12 02:19:15;;;;;;;;;;;;;;;4.68;100.00;100844.89;1665739;86;20510;-82
2022/11/12 02:22:00;;;;;;;;;;;;;;;4.66;100.00;100843.56;1665996;86;20264;-83
2022/11/12 02:24:44;;;;;;;;;;;;;;;4.66;100.00;100842.27;1665697;86;20486;-83
2022/11/12 02:27:29;;;;;;;;;;;;;;;4.67;100.00;100844.43;1689178;83;20202;-81
2022/11/12 02:30:14;;;;;;;;;;;;;;;4.66;100.00;100850.08;1693553;84;21129;-83
2022/11/12 02:32:58;;;;;;;;;;;;;;;4.65;100.00;100849.63;1685336;85;20219;-86
2022/11/12 02:35:43;;;;;;;;;;;;;;;4.64;100.00;100848.76;1683605;83;20199;-87
2022/11/12 02:38:28;;;;;;;;;;;;;;;4.67;100.00;100857.03;1682138;85;20180;-88
2022/11/12 02:41:13;;;;;;;;;;;;;;;4.68;100.00;100854.88;1677295;84;20212;-85
2022/11/12 02:43:58;;;;;;;;;;;;;;;4.68;100.00;100851.41;1662616;83;21897;-86
2022/11/12 02:46:43;;;;;;;;;;;;;;;4.68;100.00;100852.27;1657992;86;20441;-84
2022/11/12 02:49:28;;;;;;;;;;;;;;;4.72;100.00;100862.30;1657787;86;20205;-82
2022/11/12 02:52:12;;;;;;;;;;;;;;;4.74;100.00;100856.66;1657607;85;20201;-81
2022/11/12 02:54:58;;;;;;;;;;;;;;;4.71;100.00;100840.98;1694063;84;20221;-83
2022/11/12 02:57:43;;;;;;;;;;;;;;;4.71;100.00;100840.98;1697315;84;21828;-83
2022/11/12 03:00:27;;;;;;;;;;;;;;;4.71;100.00;100844.48;1697686;84;20630;-85
2022/11/12 03:03:12;;;;;;;;;;;;;;;4.73;100.00;100846.67;1696192;83;20185;-85
2022/11/12 03:05:58;;;;;;;;;;;;;;;4.72;100.00;100842.30;1697365;84;20503;-84
2022/11/12 03:08:43;;;;;;;;;;;;;;;4.74;100.00;100847.13;1697518;84;20503;-86
2022/11/12 03:11:28;;;;;;;;;;;;;;;4.77;100.00;100844.53;1697365;84;21108;-81
2022/11/12 03:14:14;;;;;;;;;;;;;;;4.80;100.00;100843.70;1687413;83;20199;-83
2022/11/12 03:16:59;;;;;;;;;;;;;;;4.83;100.00;100845.05;1685449;85;20238;-80
2022/11/12 03:19:43;;;;;;;;;;;;;;;4.87;100.00;100842.03;1685162;84;20274;-80
2022/11/12 03:22:29;;;;;;;;;;;;;;;4.88;100.00;100846.41;1685462;83;20148;-81
2022/11/12 03:25:14;;;;;;;;;;;;;;;4.86;100.00;100843.78;1657885;86;21280;-81
2022/11/12 03:28:02;;;;;;;;;;;;;;;4.85;100.00;100853.75;1657214;86;20229;-80
2022/11/12 03:30:47;;;;;;;;;;;;;;;4.83;100.00;100856.78;1664391;83;20241;-80
2022/11/12 03:33:32;;;;;;;;;;;;;;;4.80;100.00;100853.70;1663664;84;20197;-78
2022/11/12 03:36:17;;;;;;;;;;;;;;;4.77;100.00;100847.58;1667486;84;20280;-80
2022/11/12 03:39:02;;;;;;;;;;;;;;;4.76;100.00;100845.41;1663690;86;21178;-81
2022/11/12 03:41:47;;;;;;;;;;;;;;;4.75;100.00;100851.47;1664422;84;20186;-83
2022/11/12 03:44:32;;;;;;;;;;;;;;;4.72;100.00;100854.04;1663768;86;20244;-80
2022/11/12 03:47:17;;;;;;;;;;;;;;;4.70;100.00;100853.16;1663991;84;20233;-81
2022/11/12 03:50:02;;;;;;;;;;;;;;;4.71;100.00;100854.91;1663591;86;20212;-81
2022/11/12 03:52:50;;;;;;;;;;;;;;;4.73;100.00;100847.11;1663354;86;21170;-81
2022/11/12 03:55:34;;;;;;;;;;;;;;;4.72;100.00;100836.23;1663225;86;20213;-80
2022/11/12 03:58:19;;;;;;;;;;;;;;;4.71;100.00;100839.68;1664946;84;20264;-82
2022/11/12 04:01:04;;;;;;;;;;;;;;;4.70;100.00;100844.03;1640138;84;20200;-81
2022/11/12 04:03:49;;;;;;;;;;;;;;;4.69;100.00;100841.00;1635155;87;20215;-81
2022/11/12 04:09:36;;;;;;;;;;;;;;;4.66;100.00;100825.31;1620439;86;20144;-83
2022/11/12 04:15:24;;;;;;;;;;;;;;;4.70;100.00;100837.52;1637446;87;20207;-84
2022/11/12 04:27:29;;;;;;;;;;;;;;;4.87;100.00;100842.03;1666056;86;20291;-85
2022/11/12 04:30:20;;;;;;;;;;;;;;;4.91;100.00;100846.41;1665738;84;20200;-84
2022/11/12 04:33:05;;;;;;;;;;;;;;;4.95;100.00;100841.69;1690564;83;20254;-83
2022/11/12 04:35:51;;;;;;;;;;;;;;;4.97;100.00;100834.74;1692834;84;20623;-86
2022/11/12 04:38:37;;;;;;;;;;;;;;;4.99;100.00;100832.61;1689485;84;20149;-84
2022/11/12 04:47:34;;;;;;;;;;;;;;;5.07;100.00;100845.70;1691540;84;20167;-87
2022/11/12 04:50:19;;;;;;;;;;;;;;;5.10;100.00;100839.21;1674034;84;21229;-83
2022/11/12 04:53:04;;;;;;;;;;;;;;;5.13;100.00;100831.86;1697549;83;20921;-82
2022/11/12 04:55:50;;;;;;;;;;;;;;;5.14;100.00;100823.16;1689392;83;20213;-84
2022/11/12 04:58:35;;;;;;;;;;;;;;;5.15;100.00;100808.81;1685153;84;20748;-82
2022/11/12 05:01:20;;;;;;;;;;;;;;;5.16;100.00;100807.97;1696503;83;20170;-84
2022/11/12 05:04:05;;;;;;;;;;;;;;;5.16;100.00;100810.58;1697773;84;20533;-84
2022/11/12 05:06:53;;;;;;;;;;;;;;;5.16;100.00;100821.42;1697347;84;20233;-85
2022/11/12 05:09:38;;;;;;;;;;;;;;;5.18;100.00;100821.89;1697128;83;20986;-77
2022/11/12 05:12:22;;;;;;;;;;;;;;;5.18;100.00;100817.98;1696487;83;20180;-81
2022/11/12 05:15:10;;;;;;;;;;;;;;;5.19;100.00;100831.89;1681544;85;20222;-87
2022/11/12 05:17:56;;;;;;;;;;;;;;;5.20;100.00;100826.69;1685325;85;21845;-85
2022/11/12 05:20:43;;;;;;;;;;;;;;;5.23;100.00;100828.88;1659621;85;20595;-81
2022/11/12 05:23:28;;;;;;;;;;;;;;;5.24;100.00;100830.63;1663768;85;20513;-81
2022/11/12 05:26:12;;;;;;;;;;;;;;;5.27;100.00;100843.27;1671674;83;20476;-81
2022/11/12 05:28:57;;;;;;;;;;;;;;;5.29;100.00;100845.89;1684894;83;20461;-85
2022/11/12 05:31:43;;;;;;;;;;;;;;;5.31;100.00;100851.99;1687085;83;21371;-83
2022/11/12 05:34:27;;;;;;;;;;;;;;;5.33;100.00;100859.40;1710480;83;20228;-88
2022/11/12 05:37:12;;;;;;;;;;;;;;;5.35;100.00;100849.88;1679558;83;20259;-89
2022/11/12 05:39:57;;;;;;;;;;;;;;;5.38;100.00;100851.20;1709333;83;20278;-88
2022/11/12 05:42:43;;;;;;;;;;;;;;;5.42;100.00;100852.10;1700978;83;20209;-81
2022/11/12 05:45:29;;;;;;;;;;;;;;;5.44;100.00;100856.45;1699171;83;21339;-78
2022/11/12 05:48:13;;;;;;;;;;;;;;;5.48;100.00;100853.02;1672747;83;20231;-84
2022/11/12 05:50:58;;;;;;;;;;;;;;;5.49;100.00;100850.84;1694887;83;20516;-81
2022/11/12 05:53:43;;;;;;;;;;;;;;;5.53;100.00;100859.16;1682235;83;20193;-85
2022/11/12 05:56:28;;;;;;;;;;;;;;;5.56;100.00;100863.09;1700470;83;20202;-81
2022/11/12 05:59:14;;;;;;;;;;;;;;;5.58;100.00;100861.77;1692590;83;21161;-80
2022/11/12 06:01:59;;;;;;;;;;;;;;;5.62;100.00;100864.00;1708722;84;20228;-85
2022/11/12 06:04:44;;;;;;;;;;;;;;;5.66;100.00;100860.09;1710036;84;20921;-89
2022/11/12 06:07:28;;;;;;;;;;;;;;;5.69;100.00;100856.65;1710930;84;20213;-87
2022/11/12 06:10:13;;;;;;;;;;;;;;;5.72;100.00;100853.63;1711012;84;20618;-84
2022/11/12 06:12:58;;;;;;;;;;;;;;;5.75;100.00;100856.70;1710558;84;21839;-88
2022/11/12 06:15:44;;;;;;;;;;;;;;;5.76;100.00;100852.77;1710227;83;20240;-85
2022/11/12 06:18:29;;;;;;;;;;;;;;;5.81;100.00;100855.41;1710387;84;20212;-85
2022/11/12 06:21:22;;;;;;;;;;;;;;;5.84;100.00;100849.34;1710347;84;20221;-83
2022/11/12 06:24:08;;;;;;;;;;;;;;;5.85;100.00;100848.05;1710473;84;20173;-83
2022/11/12 06:26:53;;;;;;;;;;;;;;;5.87;100.00;100851.55;1710518;84;20547;-84
2022/11/12 06:29:38;;;;;;;;;;;;;;;5.87;100.00;100850.23;1710735;84;20232;-85
2022/11/12 06:32:23;;;;;;;;;;;;;;;5.87;100.00;100850.23;1711433;83;20248;-81
2022/11/12 06:35:08;;;;;;;;;;;;;;;5.86;100.00;100848.48;1713324;83;20227;-87
2022/11/12 06:37:54;;;;;;;;;;;;;;;5.88;100.00;100846.73;1713431;83;20224;-84
2022/11/12 06:40:38;;;;;;;;;;;;;;;5.92;100.00;100849.83;1713243;83;21293;-85
2022/11/12 06:43:24;;;;;;;;;;;;;;;6.01;100.00;100857.31;1713378;83;20524;-87
2022/11/12 06:46:14;;;;;;;;;;;;;;;6.10;100.00;100852.12;1713503;83;20440;-88
2022/11/12 06:48:58;;;;;;;;;;;;;;;6.20;100.00;100838.67;1713297;83;20166;-88
2022/11/12 06:51:43;;;;;;;;;;;;;;;6.30;100.00;100836.13;1713184;83;20201;-80
2022/11/12 06:54:28;;;;;;;;;;;;;;;6.39;100.00;100839.62;1713628;83;21547;-86
2022/11/12 06:57:13;;;;;;;;;;;;;;;6.46;100.00;100828.34;1713347;83;20216;-84
2022/11/12 06:59:58;;;;;;;;;;;;;;;6.51;100.00;100824.86;1713176;83;20200;-86
2022/11/12 07:02:42;;;;;;;;;;;;;;;6.61;100.00;100819.22;1713204;83;20255;-81
2022/11/12 07:05:27;;;;;;;;;;;;;;;6.69;100.00;100810.97;1713303;83;20208;-85
2022/11/12 07:08:11;;;;;;;;;;;;;;;6.79;100.00;100805.73;1714201;83;21145;-85
2022/11/12 07:10:56;;;;;;;;;;;;;;;6.88;100.00;100804.45;1713736;83;20165;-84
2022/11/12 07:13:43;;;;;;;;;;;;;;;6.92;100.00;100804.88;1718516;82;20126;-78
2022/11/12 07:16:28;;;;;;;;;;;;;;;6.93;100.00;100796.17;1718092;80;20170;-81
2022/11/12 07:19:12;;;;;;;;;;;;;;;6.96;100.00;100792.26;1716789;83;20197;-86
2022/11/12 07:21:57;;;;;;;;;;;;;;;6.98;100.00;100798.36;1713428;83;21124;-85
2022/11/12 07:24:43;;;;;;;;;;;;;;;7.01;100.00;100791.82;1713337;83;20212;-88
2022/11/12 07:27:29;;;;;;;;;;;;;;;7.09;100.00;100793.56;1713534;83;20549;-82
2022/11/12 07:30:14;;;;;;;;;;;;;;;7.17;100.00;100799.67;1713308;83;20575;-81
2022/11/12 07:33:00;;;;;;;;;;;;;;;7.28;100.00;100808.41;1688598;83;20170;-84
2022/11/12 07:35:45;;;;;;;;;;;;;;;7.41;100.00;100799.67;1685723;84;21170;-82
2022/11/12 07:38:33;;;;;;;;;;;;;;;7.53;100.00;100799.19;1685484;84;20323;-84
2022/11/12 07:41:22;;;;;;;;;;;;;;;7.63;100.00;100796.99;1685653;85;20244;-81
2022/11/12 07:44:07;;;;;;;;;;;;;;;7.73;100.00;100801.36;1685834;84;20211;-83
2022/11/12 07:46:51;;;;;;;;;;;;;;;7.81;100.00;100799.56;1685949;85;20934;-80
2022/11/12 07:49:36;;;;;;;;;;;;;;;7.88;100.00;100808.73;1685938;84;21171;-85
2022/11/12 07:52:22;;;;;;;;;;;;;;;7.95;100.00;100803.89;1685569;85;20176;-87
2022/11/12 07:55:08;;;;;;;;;;;;;;;8.04;100.00;100799.09;1685447;85;20196;-87
2022/11/12 07:57:53;;;;;;;;;;;;;;;8.12;100.00;100800.80;1685723;85;20892;-83
2022/11/12 08:00:38;;;;;;;;;;;;;;;8.24;100.00;100793.73;1685783;85;20240;-87
2022/11/12 08:03:23;;;;;;;;;;;;;;;8.38;100.00;100798.48;1685550;84;21249;-85
2022/11/12 08:06:08;;;;;;;;;;;;;;;8.50;100.00;100797.14;1685852;85;20169;-84
2022/11/12 08:08:56;;;;;;;;;;;;;;;8.59;100.00;100809.36;1685868;84;20632;-84
2022/11/12 08:11:41;;;;;;;;;;;;;;;8.64;100.00;100805.37;1685939;85;20200;-87
2022/11/12 08:14:26;;;;;;;;;;;;;;;8.74;100.00;100818.86;1686108;85;20206;-83
2022/11/12 08:17:12;;;;;;;;;;;;;;;8.80;100.00;100817.52;1685830;85;21147;-84
2022/11/12 08:19:58;;;;;;;;;;;;;;;8.86;100.00;100822.73;1685591;85;20192;-83
2022/11/12 08:22:44;;;;;;;;;;;;;;;8.95;100.00;100813.06;1685625;84;20199;-84
2022/11/12 08:25:29;;;;;;;;;;;;;;;9.02;99.61;100812.12;1685893;84;20164;-84
2022/11/12 08:28:14;;;;;;;;;;;;;;;9.05;98.21;100817.36;1685692;85;20195;-82
2022/11/12 08:31:11;;;;;;;;;;;;;;;9.00;97.74;100812.14;1685221;84;21822;-82
2022/11/12 08:33:56;;;;;;;;;;;;;;;8.99;98.48;100802.95;1685648;85;20203;-84
2022/11/12 08:36:42;;;;;;;;;;;;;;;9.07;98.90;100798.52;1686165;85;20198;-85
2022/11/12 08:39:27;;;;;;;;;;;;;;;9.19;98.95;100804.11;1685844;85;20144;-86
2022/11/12 08:42:12;;;;;;;;;;;;;;;9.30;97.83;100799.20;1685747;85;20199;-83
2022/11/12 08:44:56;;;;;;;;;;;;;;;9.42;97.18;100798.22;1686206;85;21780;-82
2022/11/12 08:47:42;;;;;;;;;;;;;;;9.49;96.16;100808.23;1685538;85;20211;-85
2022/11/12 08:50:27;;;;;;;;;;;;;;;9.53;96.05;100807.33;1685890;84;20200;-87
2022/11/12 08:53:12;;;;;;;;;;;;;;;9.57;95.18;100798.97;1685833;85;20639;-87
2022/11/12 08:55:57;;;;;;;;;;;;;;;9.59;95.63;100804.62;1685520;85;20525;-82
2022/11/12 08:58:42;;;;;;;;;;;;;;;9.57;95.56;100795.89;1685825;85;21255;-85
2022/11/12 09:01:27;;;;;;;;;;;;;;;9.55;95.24;100802.03;1685715;84;20231;-84
2022/11/12 09:04:12;;;;;;;;;;;;;;;9.52;95.71;100792.44;1685952;85;20473;-82
2022/11/12 09:06:57;;;;;;;;;;;;;;;9.54;96.05;100791.97;1686057;85;20510;-85
2022/11/12 09:09:42;;;;;;;;;;;;;;;9.56;96.07;100786.70;1685753;85;21100;-83
2022/11/12 09:12:27;;;;;;;;;;;;;;;9.58;96.12;100788.45;1685677;85;21240;-85
2022/11/12 09:15:11;;;;;;;;;;;;;;;9.62;96.63;100787.97;1685544;84;20191;-84
2022/11/12 09:18:00;;;;;;;;;;;;;;;9.64;96.01;100778.30;1685957;85;20200;-83
2022/11/12 09:20:45;;;;;;;;;;;;;;;9.67;96.44;100778.28;1685693;84;20212;-87
2022/11/12 09:23:30;;;;;;;;;;;;;;;9.66;95.84;100778.70;1686088;85;20228;-83
2022/11/12 09:26:15;;;;;;;;;;;;;;;9.67;95.67;100779.14;1685630;85;21151;-84
2022/11/12 09:29:00;;;;;;;;;;;;;;;9.70;96.36;100778.67;1685839;85;20140;-84
2022/11/12 09:31:45;;;;;;;;;;;;;;;9.74;96.51;100776.45;1687647;84;20393;-82
2022/11/12 09:34:30;;;;;;;;;;;;;;;9.76;96.48;100773.36;1693200;84;20222;-82
2022/11/12 09:37:16;;;;;;;;;;;;;;;9.79;96.07;100778.59;1693634;84;20206;-85
2022/11/12 09:40:03;;;;;;;;;;;;;;;9.82;95.69;100780.73;1693980;84;21156;-86
2022/11/12 09:42:51;;;;;;;;;;;;;;;9.85;94.98;100779.81;1693799;84;20481;-82
2022/11/12 09:45:36;;;;;;;;;;;;;;;9.86;95.05;100777.17;1693832;84;20195;-85
2022/11/12 09:48:30;;;;;;;;;;;;;;;9.95;95.08;100768.33;1693584;84;20567;-84
2022/11/12 09:51:24;;;;;;;;;;;;;;;10.10;95.38;100765.06;1693842;84;20202;-84
2022/11/12 09:54:19;;;;;;;;;;;;;;;10.33;94.60;100772.70;1693750;84;21103;-87
2022/11/12 09:57:04;;;;;;;;;;;;;;;10.51;91.72;100771.12;1693719;84;20199;-85
2022/11/12 09:59:48;;;;;;;;;;;;;;;10.64;90.02;100778.41;1693366;84;20263;-84
2022/11/12 10:02:40;;;;;;;;;;;;;;;10.72;88.73;100775.19;1694813;84;20168;-83
2022/11/12 10:05:33;;;;;;;;;;;;;;;10.78;88.48;100771.16;1693654;84;20986;-83
2022/11/12 10:08:53;;;;;;;;;;;;;;;10.89;87.74;100764.86;1693585;84;21683;-84
2022/11/12 10:18:28;;;;;;;;;;;;;;;11.31;85.99;100771.62;1693494;84;20515;-85
2022/11/12 10:21:32;;;;;;;;;;;;;;;11.35;85.21;100765.41;1694044;84;20202;-84
2022/11/12 10:24:19;;;;;;;;;;;;;;;11.34;83.28;100764.52;1693401;84;21968;-84
2022/11/12 10:27:18;;;;;;;;;;;;;;;11.24;82.97;100762.95;1693435;84;20147;-85
2022/11/12 10:30:04;;;;;;;;;;;;;;;11.12;83.41;100762.71;1693750;84;20202;-83
2022/11/12 10:32:50;;;;;;;;;;;;;;;11.01;83.62;100747.56;1693364;84;20600;-82
2022/11/12 10:35:35;;;;;;;;;;;;;;;10.95;83.91;100758.19;1693598;84;20179;-85
2022/11/12 10:38:23;;;;;;;;;;;;;;;10.89;84.39;100748.63;1693524;84;21273;-83
2022/11/12 10:41:20;;;;;;;;;;;;;;;10.88;84.86;100742.93;1693673;84;20198;-87
2022/11/12 10:44:05;;;;;;;;;;;;;;;10.96;85.17;100743.67;1693511;84;20206;-82
2022/11/12 10:46:50;;;;;;;;;;;;;;;11.11;85.29;100730.70;1693610;84;20514;-82
2022/11/12 10:49:35;;;;;;;;;;;;;;;11.27;84.36;100733.06;1693704;84;20238;-84
2022/11/12 10:52:22;;;;;;;;;;;;;;;11.37;82.35;100737.27;1693467;84;21148;-82
2022/11/12 10:55:21;;;;;;;;;;;;;;;11.39;80.89;100737.23;1693525;84;20171;-83
2022/11/12 10:58:13;;;;;;;;;;;;;;;11.32;80.78;100728.58;1693745;84;20595;-82
2022/11/12 11:01:07;;;;;;;;;;;;;;;11.20;80.82;100736.25;1693609;84;20231;-81
2022/11/12 11:03:56;;;;;;;;;;;;;;;11.10;81.79;100728.09;1693815;84;20222;-83
2022/11/12 11:06:40;;;;;;;;;;;;;;;11.01;82.49;100713.33;1693444;84;21916;-84
2022/11/12 11:09:27;;;;;;;;;;;;;;;10.97;82.89;100722.16;1693556;84;20153;-85
2022/11/12 11:12:29;;;;;;;;;;;;;;;10.92;82.79;100712.15;1693911;84;20262;-84
2022/11/12 11:15:18;;;;;;;;;;;;;;;10.89;82.95;100714.41;1693677;84;20238;-84
2022/11/12 11:18:04;;;;;;;;;;;;;;;10.90;82.92;100716.13;1693568;84;20135;-89
2022/11/12 11:20:53;;;;;;;;;;;;;;;11.01;82.42;100719.02;1693486;84;20683;-80
2022/11/12 11:23:49;;;;;;;;;;;;;;;11.31;81.48;100723.77;1693679;84;20176;-84
2022/11/12 11:26:40;;;;;;;;;;;;;;;11.67;79.87;100713.86;1693190;84;20206;-84
2022/11/12 11:29:38;;;;;;;;;;;;;;;11.94;78.35;100716.88;1693946;84;20299;-81
2022/11/12 11:32:31;;;;;;;;;;;;;;;12.33;77.29;100713.80;1690352;84;20231;-85
2022/11/12 11:35:36;;;;;;;;;;;;;;;12.72;74.58;100708.94;1687991;85;21234;-80
2022/11/12 11:38:45;;;;;;;;;;;;;;;12.89;73.27;100713.34;1688228;85;20254;-85
2022/11/12 11:41:42;;;;;;;;;;;;;;;13.13;72.77;100713.62;1688009;85;20430;-87
2022/11/12 11:44:37;;;;;;;;;;;;;;;13.58;71.58;100719.08;1688191;85;20964;-82
2022/11/12 11:47:38;;;;;;;;;;;;;;;13.83;69.42;100708.67;1687945;85;20231;-83
2022/11/12 11:50:36;;;;;;;;;;;;;;;13.96;69.06;100720.63;1688404;85;21202;-85
2022/11/12 11:53:24;;;;;;;;;;;;;;;14.17;67.89;100707.67;1688198;85;20478;-88
2022/11/12 11:56:16;;;;;;;;;;;;;;;14.10;68.08;100702.58;1688165;85;20211;-84
2022/11/12 11:59:07;;;;;;;;;;;;;;;13.95;68.08;100692.43;1688273;85;20191;-88
2022/11/12 12:02:22;;;;;;;;;;;;;;;13.64;68.51;100692.01;1688098;85;20226;-82
2022/11/12 12:05:20;;;;;;;;;;;;;;;13.28;70.11;100711.92;1687963;85;21236;-84
2022/11/12 12:08:19;;;;;;;;;;;;;;;13.13;70.98;100703.05;1692712;84;20237;-87
2022/11/12 12:11:17;;;;;;;;;;;;;;;13.39;69.65;100701.08;1700932;84;20233;-81
2022/11/12 12:14:26;;;;;;;;;;;;;;;13.23;70.54;100696.64;1704315;83;20185;-79
2022/11/12 12:17:22;;;;;;;;;;;;;;;12.89;71.16;100692.20;1703789;83;20198;-79
2022/11/12 12:20:32;;;;;;;;;;;;;;;12.53;71.73;100689.58;1701121;84;21118;-83
2022/11/12 12:23:32;;;;;;;;;;;;;;;12.23;72.40;100694.66;1701061;84;20150;-79
2022/11/12 12:26:30;;;;;;;;;;;;;;;12.04;73.80;100694.67;1700778;84;20237;-84
2022/11/12 12:29:18;;;;;;;;;;;;;;;11.90;74.86;100689.63;1700621;84;20198;-85
2022/11/12 12:32:24;;;;;;;;;;;;;;;11.99;75.14;100685.98;1696631;83;20201;-82
2022/11/12 12:35:16;;;;;;;;;;;;;;;12.31;74.77;100679.12;1698220;83;21792;-80
2022/11/12 12:38:30;;;;;;;;;;;;;;;13.01;71.24;100683.99;1695100;84;20223;-85
2022/11/12 12:41:43;;;;;;;;;;;;;;;12.98;70.34;100672.17;1677293;84;20211;-80
2022/11/12 12:47:38;;;;;;;;;;;;;;;12.96;70.10;100668.72;1695202;84;20187;-84
2022/11/12 12:50:23;;;;;;;;;;;;;;;12.69;70.10;100682.61;1695238;84;21196;-84
2022/11/12 12:53:16;;;;;;;;;;;;;;;12.37;70.99;100664.45;1666897;86;20212;-82
2022/11/12 12:56:15;;;;;;;;;;;;;;;12.08;72.17;100693.69;1696774;84;20215;-82
2022/11/12 12:59:06;;;;;;;;;;;;;;;11.92;73.07;100691.84;1695809;84;20223;-82
2022/11/12 13:02:01;;;;;;;;;;;;;;;11.86;73.80;100688.84;1695645;84;20175;-80
2022/11/12 13:04:55;;;;;;;;;;;;;;;12.15;72.64;100678.13;1695238;84;21247;-81
2022/11/12 13:07:46;;;;;;;;;;;;;;;12.69;70.51;100661.48;1695167;84;20199;-84
2022/11/12 13:10:43;;;;;;;;;;;;;;;12.83;69.42;100665.52;1695187;84;20247;-82
2022/11/12 13:13:33;;;;;;;;;;;;;;;12.64;69.54;100657.19;1695286;84;20904;-83
2022/11/12 13:16:39;;;;;;;;;;;;;;;12.47;70.00;100668.59;1666984;86;20233;-80
2022/11/12 13:19:27;;;;;;;;;;;;;;;12.57;70.06;100680.67;1696828;84;21196;-81
2022/11/12 13:22:25;;;;;;;;;;;;;;;12.39;70.30;100687.70;1695195;84;20203;-81
2022/11/12 13:25:17;;;;;;;;;;;;;;;12.10;71.28;100680.47;1695051;84;20261;-82
2022/11/12 13:28:05;;;;;;;;;;;;;;;11.80;72.49;100677.13;1695188;84;20702;-81
2022/11/12 13:30:54;;;;;;;;;;;;;;;11.59;73.20;100680.19;1695229;84;20485;-85
2022/11/12 13:33:39;;;;;;;;;;;;;;;11.39;74.00;100676.63;1672429;85;21173;-82
2022/11/12 13:36:26;;;;;;;;;;;;;;;11.24;75.26;100680.42;1644812;87;20202;-81
2022/11/12 13:39:14;;;;;;;;;;;;;;;11.11;76.02;100675.39;1673809;85;20241;-80
2022/11/12 13:45:05;;;;;;;;;;;;;;;10.95;77.52;100664.24;1674044;85;20212;-85
2022/11/12 13:47:50;;;;;;;;;;;;;;;10.89;77.93;100668.75;1645496;87;21112;-82
2022/11/12 13:50:34;;;;;;;;;;;;;;;10.80;77.79;100675.05;1673682;85;20329;-80
2022/11/12 13:53:22;;;;;;;;;;;;;;;10.70;77.74;100679.59;1645007;87;20167;-81
2022/11/12 13:56:11;;;;;;;;;;;;;;;10.62;78.49;100674.89;1673907;85;20372;-81
2022/11/12 13:59:16;;;;;;;;;;;;;;;10.56;79.07;100668.44;1645331;87;20181;-83
2022/11/12 14:02:04;;;;;;;;;;;;;;;10.52;79.60;100682.52;1673961;85;21157;-82
2022/11/12 14:04:49;;;;;;;;;;;;;;;10.47;80.25;100672.52;1645417;87;20482;-83
2022/11/12 14:07:38;;;;;;;;;;;;;;;10.40;80.44;100679.17;1673933;85;20185;-82
2022/11/12 14:10:38;;;;;;;;;;;;;;;10.36;80.91;100678.81;1645187;87;20431;-82
2022/11/12 14:13:33;;;;;;;;;;;;;;;10.33;80.88;100680.17;1673845;85;20236;-85
2022/11/12 14:16:41;;;;;;;;;;;;;;;10.28;81.11;100687.69;1645455;87;22328;-82
2022/11/12 14:19:48;;;;;;;;;;;;;;;10.24;81.67;100681.61;1673790;85;20297;-81
2022/11/12 14:22:38;;;;;;;;;;;;;;;10.19;81.81;100676.86;1632710;87;20484;-86
2022/11/12 14:25:25;;;;;;;;;;;;;;;10.16;82.04;100669.00;1645255;87;20203;-84
2022/11/12 14:28:33;;;;;;;;;;;;;;;10.13;82.37;100675.16;1641461;87;20620;-82
2022/11/12 14:31:21;;;;;;;;;;;;;;;10.09;82.48;100670.85;1665173;86;21175;-81
2022/11/12 14:34:28;;;;;;;;;;;;;;;10.06;82.91;100670.03;1653106;85;20205;-82
2022/11/12 14:37:23;;;;;;;;;;;;;;;10.04;82.99;100672.22;1631536;85;20815;-84
2022/11/12 14:40:16;;;;;;;;;;;;;;;10.01;83.27;100682.78;1674107;85;20204;-81
2022/11/12 14:43:01;;;;;;;;;;;;;;;9.96;83.42;100685.05;1673793;85;20212;-81
2022/11/12 14:45:47;;;;;;;;;;;;;;;9.93;83.74;100696.47;1673973;85;21765;-82
2022/11/12 14:48:39;;;;;;;;;;;;;;;9.91;83.59;100685.11;1674122;85;20284;-81
2022/11/12 14:51:25;;;;;;;;;;;;;;;9.87;84.03;100683.42;1666778;85;20522;-82
2022/11/12 14:54:16;;;;;;;;;;;;;;;9.85;84.21;100673.34;1673647;85;20676;-82
2022/11/12 14:57:01;;;;;;;;;;;;;;;9.84;84.20;100678.20;1673997;85;20451;-82
2022/11/12 14:59:46;;;;;;;;;;;;;;;9.82;84.44;100669.02;1673911;85;21850;-83
2022/11/12 15:02:32;;;;;;;;;;;;;;;9.78;84.66;100666.44;1673931;85;20369;-80